Time,TemperatureF,DewpointF,PressureIn,WindDirection,WindDirectionDegrees,WindSpeedMPH,WindSpeedGustMPH,Humidity,HourlyPrecipIn,Conditions,Clouds,dailyrainin,SoftwareType,DateUTC
2013-01-21 00:08:00,-999.0,-99.9,30.19,North,-999,-999.0,-999.0,-999,0.00,,,0.00,weatherlink.com 1.10,2013-01-21 05:08:00,
2013-01-21 00:23:00,-999.0,-99.9,30.19,North,-999,-999.0,-999.0,-999,0.00,,,0.00,weatherlink.com 1.10,2013-01-21 05:23:00,
2013-01-21 00:39:00,-999.0,-99.9,30.19,North,-999,-999.0,-999.0,-999,0.00,,,0.00,weatherlink.com 1.10,2013-01-21 05:39:00,
2013-01-21 00:54:00,-999.0,-99.9,30.18,North,-999,-999.0,-999.0,-999,0.00,,,0.00,weatherlink.com 1.10,2013-01-21 05:54:00,
2013-01-21 01:09:00,-999.0,-99.9,30.17,North,-999,-999.0,-999.0,-999,0.00,,,0.00,weatherlink.com 1.10,2013-01-21 06:09:00,
2013-01-21 01:24:00,-999.0,-99.9,30.17,North,-999,-999.0,-999.0,-999,0.00,,,0.00,weatherlink.com 1.10,2013-01-21 06:24:00,
2013-01-21 01:39:00,-999.0,-99.9,30.16,North,-999,-999.0,-999.0,-999,0.00,,,0.00,weatherlink.com 1.10,2013-01-21 06:39:00,
2013-01-21 01:54:00,-999.0,-99.9,30.16,North,-999,-999.0,-999.0,-999,0.00,,,0.00,weatherlink.com 1.10,2013-01-21 06:54:00,
2013-01-21 02:09:00,-999.0,-99.9,30.16,North,-999,-999.0,-999.0,-999,0.00,,,0.00,weatherlink.com 1.10,2013-01-21 07:09:00,
2013-01-21 02:24:00,-999.0,-99.9,30.17,North,-999,-999.0,-999.0,-999,0.00,,,0.00,weatherlink.com 1.10,2013-01-21 07:24:00,
2013-01-21 02:39:00,-999.0,-99.9,30.17,North,-999,-999.0,-999.0,-999,0.00,,,0.00,weatherlink.com 1.10,2013-01-21 07:39:00,
2013-01-21 02:54:00,-999.0,-99.9,30.18,North,-999,-999.0,-999.0,-999,0.00,,,0.00,weatherlink.com 1.10,2013-01-21 07:54:00,
2013-01-21 03:09:00,-999.0,-99.9,30.18,North,-999,-999.0,-999.0,-999,0.00,,,0.00,weatherlink.com 1.10,2013-01-21 08:09:00,
2013-01-21 03:24:00,-999.0,-99.9,30.18,North,-999,-999.0,-999.0,-999,0.00,,,0.00,weatherlink.com 1.10,2013-01-21 08:24:00,
2013-01-21 03:39:00,-999.0,-99.9,30.18,North,-999,-999.0,-999.0,-999,0.00,,,0.00,weatherlink.com 1.10,2013-01-21 08:39:00,
2013-01-21 03:54:00,-999.0,-99.9,30.18,North,-999,-999.0,-999.0,-999,0.00,,,0.00,weatherlink.com 1.10,2013-01-21 08:54:00,
2013-01-21 04:10:00,-999.0,-99.9,30.17,North,-999,-999.0,-999.0,-999,0.00,,,0.00,weatherlink.com 1.10,2013-01-21 09:10:00,
2013-01-21 04:25:00,-999.0,-99.9,30.17,North,-999,-999.0,-999.0,-999,0.00,,,0.00,weatherlink.com 1.10,2013-01-21 09:25:00,
2013-01-21 04:40:00,-999.0,-99.9,30.17,North,-999,-999.0,-999.0,-999,0.00,,,0.00,weatherlink.com 1.10,2013-01-21 09:40:00,
2013-01-21 04:55:00,-999.0,-99.9,30.17,North,-999,-999.0,-999.0,-999,0.00,,,0.00,weatherlink.com 1.10,2013-01-21 09:55:00,
2013-01-21 05:10:00,-999.0,-99.9,30.18,North,-999,-999.0,-999.0,-999,0.00,,,0.00,weatherlink.com 1.10,2013-01-21 10:10:00,
2013-01-21 05:25:00,-999.0,-99.9,30.18,North,-999,-999.0,-999.0,-999,0.00,,,0.00,weatherlink.com 1.10,2013-01-21 10:25:00,
2013-01-21 05:40:00,-999.0,-99.9,30.18,North,-999,-999.0,-999.0,-999,0.00,,,0.00,weatherlink.com 1.10,2013-01-21 10:40:00,
2013-01-21 05:55:00,-999.0,-99.9,30.17,North,-999,-999.0,-999.0,-999,0.00,,,0.00,weatherlink.com 1.10,2013-01-21 10:55:00,
2013-01-21 06:10:00,-999.0,-99.9,30.18,North,-999,-999.0,-999.0,-999,0.00,,,0.00,weatherlink.com 1.10,2013-01-21 11:10:00,
2013-01-21 06:25:00,-999.0,-99.9,30.18,North,-999,-999.0,-999.0,-999,0.00,,,0.00,weatherlink.com 1.10,2013-01-21 11:25:00,
2013-01-21 06:40:00,-999.0,-99.9,30.18,North,-999,-999.0,-999.0,-999,0.00,,,0.00,weatherlink.com 1.10,2013-01-21 11:40:00,
2013-01-21 06:55:00,-999.0,-99.9,30.18,North,-999,-999.0,-999.0,-999,0.00,,,0.00,weatherlink.com 1.10,2013-01-21 11:55:00,
2013-01-21 07:10:00,-999.0,-99.9,30.18,North,-999,-999.0,-999.0,-999,0.00,,,0.00,weatherlink.com 1.10,2013-01-21 12:10:00,
2013-01-21 07:25:00,-999.0,-99.9,30.19,North,-999,-999.0,-999.0,-999,0.00,,,0.00,weatherlink.com 1.10,2013-01-21 12:25:00,
2013-01-21 07:41:00,-999.0,-99.9,30.19,North,-999,-999.0,-999.0,-999,0.00,,,0.00,weatherlink.com 1.10,2013-01-21 12:41:00,
2013-01-21 07:56:00,-999.0,-99.9,30.19,North,-999,-999.0,-999.0,-999,0.00,,,0.00,weatherlink.com 1.10,2013-01-21 12:56:00,
2013-01-21 08:11:00,-999.0,-99.9,30.20,North,-999,-999.0,-999.0,-999,0.00,,,0.00,weatherlink.com 1.10,2013-01-21 13:11:00,
2013-01-21 08:26:00,-999.0,-99.9,30.20,North,-999,-999.0,-999.0,-999,0.00,,,0.00,weatherlink.com 1.10,2013-01-21 13:26:00,
2013-01-21 08:41:00,23.3,19.0,30.20,North,360,8.0,13.0,82,0.00,,,0.00,weatherlink.com 1.10,2013-01-21 13:41:00,
2013-01-21 08:56:00,23.7,19.0,30.21,North,360,7.0,11.0,82,0.00,,,0.00,weatherlink.com 1.10,2013-01-21 13:56:00,
2013-01-21 09:11:00,23.8,19.0,30.22,North,360,10.0,13.0,81,0.00,,,0.00,weatherlink.com 1.10,2013-01-21 14:11:00,
2013-01-21 09:26:00,23.8,19.0,30.22,North,360,11.0,17.0,81,0.00,,,0.00,weatherlink.com 1.10,2013-01-21 14:26:00,
2013-01-21 09:41:00,23.5,18.0,30.23,North,360,12.0,18.0,78,0.00,,,0.00,weatherlink.com 1.10,2013-01-21 14:41:00,
2013-01-21 09:56:00,23.1,16.0,30.23,North,360,9.0,18.0,75,0.00,,,0.00,weatherlink.com 1.10,2013-01-21 14:56:00,
2013-01-21 10:11:00,23.4,17.0,30.23,North,360,7.0,19.0,76,0.00,,,0.00,weatherlink.com 1.10,2013-01-21 15:11:00,
2013-01-21 10:26:00,24.0,17.0,30.23,North,360,7.0,18.0,75,0.00,,,0.00,weatherlink.com 1.10,2013-01-21 15:26:00,
2013-01-21 10:41:00,24.7,17.0,30.23,North,360,9.0,16.0,73,0.00,,,0.00,weatherlink.com 1.10,2013-01-21 15:41:00,
2013-01-21 10:56:00,24.9,17.0,30.23,North,360,14.0,16.0,71,0.00,,,0.00,weatherlink.com 1.10,2013-01-21 15:56:00,
2013-01-21 11:11:00,26.0,17.0,30.22,North,360,12.0,16.0,70,0.00,,,0.00,weatherlink.com 1.10,2013-01-21 16:11:00,
2013-01-21 11:26:00,26.4,17.0,30.23,North,360,9.0,18.0,69,0.00,,,0.00,weatherlink.com 1.10,2013-01-21 16:26:00,
2013-01-21 11:41:00,27.0,16.0,30.22,North,360,19.0,25.0,63,0.00,,,0.00,weatherlink.com 1.10,2013-01-21 16:41:00,
2013-01-21 11:56:00,27.2,14.0,30.22,North,360,14.0,22.0,59,0.00,,,0.00,weatherlink.com 1.10,2013-01-21 16:56:00,
2013-01-21 12:11:00,26.9,14.0,30.21,North,360,13.0,24.0,58,0.00,,,0.00,weatherlink.com 1.10,2013-01-21 17:11:00,
2013-01-21 12:26:00,28.0,14.0,30.20,North,360,17.0,20.0,57,0.00,,,0.00,weatherlink.com 1.10,2013-01-21 17:26:00,
2013-01-21 12:41:00,28.1,15.0,30.20,North,360,11.0,21.0,58,0.00,,,0.00,weatherlink.com 1.10,2013-01-21 17:41:00,
2013-01-21 12:56:00,28.0,14.0,30.20,North,360,20.0,22.0,55,0.00,,,0.00,weatherlink.com 1.10,2013-01-21 17:56:00,
2013-01-21 13:11:00,28.1,12.0,30.20,North,360,16.0,22.0,51,0.00,,,0.00,weatherlink.com 1.10,2013-01-21 18:11:00,
2013-01-21 13:26:00,28.0,9.0,30.19,North,360,21.0,27.0,45,0.00,,,0.00,weatherlink.com 1.10,2013-01-21 18:26:00,
2013-01-21 13:41:00,27.8,9.0,30.19,North,360,15.0,26.0,45,0.00,,,0.00,weatherlink.com 1.10,2013-01-21 18:41:00,
2013-01-21 13:56:00,28.1,10.0,30.18,North,360,9.0,22.0,46,0.00,,,0.00,weatherlink.com 1.10,2013-01-21 18:56:00,
2013-01-21 14:12:00,28.1,10.0,30.20,North,360,8.0,23.0,46,0.00,,,0.00,weatherlink.com 1.10,2013-01-21 19:12:00,
2013-01-21 14:27:00,27.8,10.0,30.20,North,360,13.0,23.0,47,0.00,,,0.00,weatherlink.com 1.10,2013-01-21 19:27:00,
2013-01-21 14:42:00,28.1,10.0,30.21,North,360,15.0,24.0,47,0.00,,,0.00,weatherlink.com 1.10,2013-01-21 19:42:00,
2013-01-21 14:57:00,27.3,10.0,30.20,North,360,15.0,25.0,48,0.00,,,0.00,weatherlink.com 1.10,2013-01-21 19:57:00,
2013-01-21 15:12:00,27.5,10.0,30.21,North,360,11.0,20.0,49,0.00,,,0.00,weatherlink.com 1.10,2013-01-21 20:12:00,
2013-01-21 15:42:00,27.2,8.0,30.22,North,360,17.0,22.0,44,0.00,,,0.00,weatherlink.com 1.10,2013-01-21 20:42:00,
2013-01-21 15:57:00,27.0,8.0,30.23,North,360,12.0,23.0,45,0.00,,,0.00,weatherlink.com 1.10,2013-01-21 20:57:00,
2013-01-21 16:12:00,26.9,9.0,30.23,North,360,13.0,23.0,46,0.00,,,0.00,weatherlink.com 1.10,2013-01-21 21:12:00,
2013-01-21 16:27:00,26.2,8.0,30.23,North,360,8.0,19.0,47,0.00,,,0.00,weatherlink.com 1.10,2013-01-21 21:27:00,
2013-01-21 16:42:00,25.8,8.0,30.23,North,360,12.0,22.0,47,0.00,,,0.00,weatherlink.com 1.10,2013-01-21 21:42:00,
2013-01-21 16:57:00,25.1,8.0,30.23,North,360,14.0,24.0,49,0.00,,,0.00,weatherlink.com 1.10,2013-01-21 21:57:00,
2013-01-21 17:12:00,24.4,8.0,30.24,North,360,7.0,19.0,50,0.00,,,0.00,weatherlink.com 1.10,2013-01-21 22:12:00,
2013-01-21 17:27:00,24.0,7.0,30.25,North,360,12.0,20.0,49,0.00,,,0.00,weatherlink.com 1.10,2013-01-21 22:27:00,
2013-01-21 17:42:00,23.7,7.0,30.25,North,360,9.0,19.0,50,0.00,,,0.00,weatherlink.com 1.10,2013-01-21 22:42:00,
2013-01-21 17:57:00,-999.0,-99.9,30.26,North,-999,-999.0,-999.0,-999,0.00,,,0.00,weatherlink.com 1.10,2013-01-21 22:57:00,
2013-01-21 18:12:00,-999.0,-99.9,30.26,North,-999,-999.0,-999.0,-999,0.00,,,0.00,weatherlink.com 1.10,2013-01-21 23:12:00,
2013-01-21 18:27:00,-999.0,-99.9,30.27,North,-999,-999.0,-999.0,-999,0.00,,,0.00,weatherlink.com 1.10,2013-01-21 23:27:00,
2013-01-21 18:42:00,-999.0,-99.9,30.26,North,-999,-999.0,-999.0,-999,0.00,,,0.00,weatherlink.com 1.10,2013-01-21 23:42:00,
2013-01-21 18:57:00,-999.0,-99.9,30.27,North,-999,-999.0,-999.0,-999,0.00,,,0.00,weatherlink.com 1.10,2013-01-21 23:57:00,
2013-01-21 19:12:00,-999.0,-99.9,30.27,North,-999,-999.0,-999.0,-999,0.00,,,0.00,weatherlink.com 1.10,2013-01-22 00:12:00,
2013-01-21 19:27:00,-999.0,-99.9,30.28,North,-999,-999.0,-999.0,-999,0.00,,,0.00,weatherlink.com 1.10,2013-01-22 00:27:00,
2013-01-21 19:42:00,-999.0,-99.9,30.28,North,-999,-999.0,-999.0,-999,0.00,,,0.00,weatherlink.com 1.10,2013-01-22 00:42:00,
2013-01-21 19:57:00,-999.0,-99.9,30.27,North,-999,-999.0,-999.0,-999,0.00,,,0.00,weatherlink.com 1.10,2013-01-22 00:57:00,
2013-01-21 20:12:00,-999.0,-99.9,30.28,North,-999,-999.0,-999.0,-999,0.00,,,0.00,weatherlink.com 1.10,2013-01-22 01:12:00,
2013-01-21 20:43:00,-999.0,-99.9,30.29,North,-999,-999.0,-999.0,-999,0.00,,,0.00,weatherlink.com 1.10,2013-01-22 01:43:00,
2013-01-21 20:58:00,-999.0,-99.9,30.29,North,-999,-999.0,-999.0,-999,0.00,,,0.00,weatherlink.com 1.10,2013-01-22 01:58:00,
2013-01-21 21:13:00,-999.0,-99.9,30.30,North,-999,-999.0,-999.0,-999,0.00,,,0.00,weatherlink.com 1.10,2013-01-22 02:13:00,
2013-01-21 21:28:00,-999.0,-99.9,30.30,North,-999,-999.0,-999.0,-999,0.00,,,0.00,weatherlink.com 1.10,2013-01-22 02:28:00,
2013-01-21 21:43:00,-999.0,-99.9,30.30,North,-999,-999.0,-999.0,-999,0.00,,,0.00,weatherlink.com 1.10,2013-01-22 02:43:00,
2013-01-21 21:58:00,-999.0,-99.9,30.31,North,-999,-999.0,-999.0,-999,0.00,,,0.00,weatherlink.com 1.10,2013-01-22 02:58:00,
2013-01-21 22:13:00,-999.0,-99.9,30.31,North,-999,-999.0,-999.0,-999,0.00,,,0.00,weatherlink.com 1.10,2013-01-22 03:13:00,
2013-01-21 22:28:00,-999.0,-99.9,30.31,North,-999,-999.0,-999.0,-999,0.00,,,0.00,weatherlink.com 1.10,2013-01-22 03:28:00,
2013-01-21 22:43:00,-999.0,-99.9,30.30,North,-999,-999.0,-999.0,-999,0.00,,,0.00,weatherlink.com 1.10,2013-01-22 03:43:00,
2013-01-21 22:58:00,-999.0,-99.9,30.31,North,-999,-999.0,-999.0,-999,0.00,,,0.00,weatherlink.com 1.10,2013-01-22 03:58:00,
2013-01-21 23:13:00,-999.0,-99.9,30.30,North,-999,-999.0,-999.0,-999,0.00,,,0.00,weatherlink.com 1.10,2013-01-22 04:13:00,
2013-01-21 23:28:00,-999.0,-99.9,30.30,North,-999,-999.0,-999.0,-999,0.00,,,0.00,weatherlink.com 1.10,2013-01-22 04:28:00,
2013-01-21 23:43:00,-999.0,-99.9,30.30,North,-999,-999.0,-999.0,-999,0.00,,,0.00,weatherlink.com 1.10,2013-01-22 04:43:00,
2013-01-21 23:59:00,-999.0,-99.9,30.31,North,-999,-999.0,-999.0,-999,0.00,,,0.00,weatherlink.com 1.10,2013-01-22 04:59:00,